Glenwood Springs, CO (81601)

2:17 AM MST on February 06, 2016 (GMT -0700)
Elk Springs | | Change Station
CLOSE
Current Station
Personal Weather Station
Location: Glenwood Springs, CO
Elevation: 6988 ft
Nearby Weather Stations

Elev 6988 ft 39.48 °N, 107.25 °W | Updated 3 minutes ago

Clear
Clear
7.0 °F
Feels Like 7 °F
N
0.0
Wind Variable Wind from East

Today
High -- | Low -- °F
--% Chance of Precip.
Yesterday
High -- | Low -- °F
Precip. -- in
Pressure 30.78 in
Visibility 10.0 miles
Clouds Clear
Windchill 7 °F
Dew Point 4 °F
Humidity 87%
Rainfall 0.00 in
Snow Depth Not available.
7:12 AM 5:34 PM
Waning Crescent, 6% visible
METAR KRIL 060853Z AUTO 00000KT 10SM CLR M16/M18 A3057 RMK AO2 SLP422 I1000 I3000 T11561183 51005
Pressure 30.78 in
Visibility 10.0 miles
Clouds Clear
Windchill 7 °F
Dew Point 4 °F
Humidity 87%
Rainfall 0.00 in
Snow Depth Not available.
7:12 AM 5:34 PM
Waning Crescent, 6% visible
METAR KRIL 060853Z AUTO 00000KT 10SM CLR M16/M18 A3057 RMK AO2 SLP422 I1000 I3000 T11561183 51005

10-Day Weather Forecast

Almanac

Astronomy

Feb. 06, 2016 Rise Set
Actual Time
Civil Twilight
Nautical Twilight
Astronomical Twilight
Moon
Length of Visible Light
Length of Day
Tomorrow will be .
, % of the Moon is Illuminated

Today's Extremes

State Highs State Lows

Community

WunderPhotos

Upload Photos

1,890,933 photos uploaded!

WunderBlog® & News

Nearby

Air Quality

  Air Quality AQ Index Pollutant
Not available.

Snow Depth

Station Depth Elevation

Earthquake Activity

City Distance Mag. Time & Date
Minimum magnitude displayed is 2.5.

Coastal Water Temperatures

Place Temperature

Stations

Nearby Weather Stations

Station Location Temp. Windchill Dew Point Humidity Wind Precip. Elev Updated Type
                   

Watches & Warnings

There are currently no watches in effect.